Time;durP1;ratioP1;P1;durP2;ratioP2;P2;SDS_P1;SDS_P2;PMS_P1;PMS_P2;Temp;Humidity;BMP_temperature;BMP_pressure;BME280_temperature;BME280_humidity;BME280_pressure;Samples;Min_cycle;Max_cycle;Signal;HPM_P1;HPM_P2
2023/03/23 00:01:12;;;;;;;10.67;7.30;;;9.10;99.90;;;;;;5095014;28;20200;-70
2023/03/23 00:03:39;;;;;;;8.37;6.80;;;9.20;99.90;;;;;;5094815;28;20196;-69
2023/03/23 00:06:07;;;;;;;8.43;6.97;;;9.20;99.90;;;;;;5095175;28;20262;-70
2023/03/23 00:08:37;;;;;;;9.80;6.60;;;9.20;99.90;;;;;;5094965;28;20268;-70
2023/03/23 00:11:04;;;;;;;10.47;7.13;;;9.20;99.90;;;;;;5095334;28;20203;-70
2023/03/23 00:13:32;;;;;;;10.97;6.30;;;9.30;99.90;;;;;;5094615;28;20231;-71
2023/03/23 00:16:00;;;;;;;8.97;5.97;;;9.30;99.90;;;;;;5094796;28;20606;-70
2023/03/23 00:18:27;;;;;;;9.57;6.57;;;9.40;99.90;;;;;;5094716;28;20695;-70
2023/03/23 00:20:56;;;;;;;7.90;6.33;;;9.30;99.90;;;;;;5094811;28;20196;-70
2023/03/23 00:23:24;;;;;;;9.03;6.03;;;9.40;99.90;;;;;;5094614;28;20254;-70
2023/03/23 00:25:56;;;;;;;8.00;6.23;;;9.40;99.90;;;;;;5094604;28;20258;-70
2023/03/23 00:28:24;;;;;;;6.13;4.90;;;9.40;99.90;;;;;;5094370;28;20243;-70
2023/03/23 00:30:56;;;;;;;6.07;4.60;;;9.60;99.90;;;;;;5094263;28;20702;-70
2023/03/23 00:33:24;;;;;;;6.57;4.20;;;9.80;99.90;;;;;;5093930;28;20285;-70
2023/03/23 00:35:52;;;;;;;5.83;4.27;;;9.90;99.90;;;;;;5094509;28;20228;-70
2023/03/23 00:38:19;;;;;;;5.40;4.03;;;10.00;99.90;;;;;;5094389;28;20196;-70
2023/03/23 00:40:47;;;;;;;4.73;3.93;;;10.10;99.90;;;;;;5094147;28;20713;-70
2023/03/23 00:43:13;;;;;;;4.83;4.13;;;10.10;99.90;;;;;;5094131;28;20219;-70
2023/03/23 00:45:40;;;;;;;4.83;3.40;;;10.20;99.90;;;;;;5094413;28;20257;-70
2023/03/23 00:48:07;;;;;;;4.23;2.90;;;10.30;99.90;;;;;;5094080;28;20220;-70
2023/03/23 00:50:35;;;;;;;4.17;3.30;;;10.60;99.90;;;;;;5094227;28;20204;-70
2023/03/23 00:53:01;;;;;;;4.77;2.93;;;10.80;99.90;;;;;;5093999;28;20232;-70
2023/03/23 00:55:30;;;;;;;4.70;3.00;;;11.10;99.90;;;;;;5094055;28;20648;-70
2023/03/23 00:57:56;;;;;;;3.53;2.90;;;11.30;99.90;;;;;;5093865;28;20249;-70
2023/03/23 01:00:24;;;;;;;4.43;2.73;;;11.40;99.90;;;;;;5093975;28;20246;-70
2023/03/23 01:02:52;;;;;;;3.07;2.60;;;11.60;99.90;;;;;;5094090;28;20226;-70
2023/03/23 01:05:19;;;;;;;3.47;2.80;;;11.60;99.90;;;;;;5093681;28;20582;-70
2023/03/23 01:07:48;;;;;;;3.30;2.73;;;11.70;99.90;;;;;;5093637;28;20192;-70
2023/03/23 01:10:17;;;;;;;3.97;2.33;;;11.80;99.90;;;;;;5093515;28;20200;-70
2023/03/23 01:12:45;;;;;;;2.53;2.30;;;11.80;99.90;;;;;;5093793;28;20196;-70
2023/03/23 01:15:15;;;;;;;4.17;2.67;;;11.70;99.90;;;;;;5093748;28;20196;-71
2023/03/23 01:17:42;;;;;;;2.80;2.37;;;11.80;99.90;;;;;;5093683;28;20235;-71
2023/03/23 01:20:10;;;;;;;3.70;2.43;;;11.80;99.90;;;;;;5093387;28;20690;-70
2023/03/23 01:22:37;;;;;;;3.57;2.40;;;11.80;99.90;;;;;;5093462;28;20604;-71
2023/03/23 01:25:06;;;;;;;4.37;2.50;;;11.80;99.90;;;;;;5093642;28;20615;-70
2023/03/23 01:27:33;;;;;;;4.10;2.30;;;11.80;99.90;;;;;;5093541;28;20246;-70
2023/03/23 01:29:59;;;;;;;4.37;2.23;;;11.80;99.90;;;;;;5093243;28;20260;-71
2023/03/23 01:32:26;;;;;;;3.43;2.30;;;11.80;99.90;;;;;;5093449;28;20227;-70
2023/03/23 01:34:53;;;;;;;3.03;2.50;;;11.80;99.90;;;;;;5093349;28;20228;-70
2023/03/23 01:37:20;;;;;;;3.20;2.50;;;11.80;99.90;;;;;;5093165;28;20671;-71
2023/03/23 01:39:46;;;;;;;3.33;2.40;;;11.80;99.90;;;;;;5093142;28;20320;-70
2023/03/23 01:42:14;;;;;;;4.03;2.50;;;11.80;99.90;;;;;;5093153;28;20659;-70
2023/03/23 01:45:21;;;;;;;3.93;2.60;;;11.90;99.90;;;;;;5093208;28;20246;-70
2023/03/23 01:47:50;;;;;;;3.63;2.30;;;11.90;99.90;;;;;;5092945;28;20235;-70
2023/03/23 01:50:17;;;;;;;3.17;2.40;;;11.90;99.90;;;;;;5093182;28;20279;-70
2023/03/23 01:52:44;;;;;;;3.10;2.60;;;11.90;99.90;;;;;;5093225;28;20589;-70
2023/03/23 01:55:11;;;;;;;3.10;2.30;;;12.00;99.90;;;;;;5093219;28;20204;-70
2023/03/23 01:57:39;;;;;;;2.77;2.30;;;12.00;99.90;;;;;;5093028;28;20257;-70
2023/03/23 02:00:14;;;;;;;2.83;2.20;;;12.00;99.90;;;;;;5093383;28;20318;-70
2023/03/23 02:02:42;;;;;;;2.90;2.60;;;12.10;99.90;;;;;;5093134;28;20227;-71
2023/03/23 02:05:14;;;;;;;3.07;2.10;;;12.00;99.90;;;;;;5093197;28;20232;-70
2023/03/23 02:07:41;;;;;;;3.47;2.40;;;12.00;99.90;;;;;;5093186;28;20235;-71
2023/03/23 02:10:08;;;;;;;2.60;2.27;;;12.00;99.90;;;;;;5092912;28;20263;-71
2023/03/23 02:12:35;;;;;;;2.50;2.30;;;12.00;99.90;;;;;;5092768;28;20196;-70
2023/03/23 02:15:04;;;;;;;3.97;2.13;;;12.00;99.90;;;;;;5092742;28;20192;-70
2023/03/23 02:17:38;;;;;;;2.60;2.23;;;12.00;99.90;;;;;;5092959;28;20193;-70
2023/03/23 02:20:19;;;;;;;6.17;2.20;;;11.90;99.90;;;;;;5092870;28;20228;-70
2023/03/23 02:23:25;;;;;;;3.63;2.27;;;12.00;99.90;;;;;;5092747;28;20197;-70
2023/03/23 02:26:02;;;;;;;2.97;2.13;;;12.00;99.90;;;;;;5093054;28;20203;-71
2023/03/23 02:28:58;;;;;;;2.20;2.00;;;12.00;99.90;;;;;;5092627;28;20227;-71
2023/03/23 02:31:46;;;;;;;4.03;2.07;;;12.00;99.90;;;;;;5092707;28;20575;-70
2023/03/23 02:34:18;;;;;;;2.33;2.00;;;12.00;99.90;;;;;;5092696;28;20263;-70
2023/03/23 02:36:48;;;;;;;2.20;2.00;;;12.00;99.90;;;;;;5092796;28;20196;-70
2023/03/23 02:39:22;;;;;;;2.30;2.10;;;12.00;99.90;;;;;;5092627;28;20220;-70
2023/03/23 02:41:53;;;;;;;3.60;1.90;;;12.10;99.90;;;;;;5092578;28;20197;-70
2023/03/23 02:44:21;;;;;;;3.33;2.20;;;12.20;99.90;;;;;;5092654;28;20204;-71
2023/03/23 02:46:48;;;;;;;6.27;2.20;;;12.20;99.90;;;;;;5092651;28;20249;-70
2023/03/23 02:49:18;;;;;;;2.63;2.27;;;12.20;99.90;;;;;;5092359;28;20282;-70
2023/03/23 02:51:47;;;;;;;2.20;1.90;;;12.10;99.90;;;;;;5092536;28;20203;-70
2023/03/23 02:54:15;;;;;;;2.03;1.83;;;12.20;99.90;;;;;;5092580;28;20200;-70
2023/03/23 02:56:43;;;;;;;3.87;2.10;;;12.20;99.90;;;;;;5093086;28;20541;-70
2023/03/23 02:59:10;;;;;;;3.20;2.10;;;12.20;99.90;;;;;;5096507;28;20235;-70
2023/03/23 03:01:58;;;;;;;2.30;1.93;;;12.10;99.90;;;;;;5096158;28;20656;-70
2023/03/23 03:04:28;;;;;;;3.00;2.20;;;12.10;99.90;;;;;;5096257;28;20235;-70
2023/03/23 03:07:16;;;;;;;2.47;1.80;;;12.00;99.90;;;;;;5096228;28;20228;-70
2023/03/23 03:09:49;;;;;;;2.83;1.90;;;12.00;99.90;;;;;;5092001;28;20263;-70
2023/03/23 03:12:23;;;;;;;2.60;1.83;;;12.00;99.90;;;;;;5096158;28;20563;-70
2023/03/23 03:14:57;;;;;;;2.60;2.07;;;12.00;99.90;;;;;;5096131;28;20239;-70
2023/03/23 03:17:26;;;;;;;2.63;2.13;;;12.00;99.90;;;;;;5095877;28;20200;-70
2023/03/23 03:19:58;;;;;;;3.00;2.33;;;12.00;99.90;;;;;;5096015;28;20254;-70
2023/03/23 03:22:28;;;;;;;2.40;1.93;;;12.00;99.90;;;;;;5095927;28;20680;-70
2023/03/23 03:24:57;;;;;;;2.67;1.93;;;12.00;99.90;;;;;;5095785;28;20192;-70
2023/03/23 03:27:25;;;;;;;3.47;2.20;;;11.90;99.90;;;;;;5095838;28;20234;-70
2023/03/23 03:29:56;;;;;;;3.20;2.50;;;11.90;99.90;;;;;;5095547;28;20695;-70
2023/03/23 03:32:30;;;;;;;3.30;1.90;;;11.90;99.90;;;;;;5095880;28;20238;-70
2023/03/23 03:35:00;;;;;;;3.20;1.90;;;11.90;99.90;;;;;;5095447;28;20743;-71
2023/03/23 03:37:27;;;;;;;3.13;2.10;;;11.90;99.90;;;;;;5095635;28;20227;-70
2023/03/23 03:39:53;;;;;;;3.00;1.90;;;11.80;99.90;;;;;;5095726;28;20243;-70
2023/03/23 03:42:20;;;;;;;3.90;2.30;;;11.70;99.90;;;;;;5095428;28;20224;-70
2023/03/23 03:44:47;;;;;;;2.27;2.07;;;11.70;99.90;;;;;;5095148;28;20197;-70
2023/03/23 03:47:13;;;;;;;2.73;2.13;;;11.70;99.90;;;;;;5095577;28;20606;-71
2023/03/23 03:49:40;;;;;;;2.43;2.23;;;11.60;99.90;;;;;;5095269;28;20277;-70
2023/03/23 03:52:08;;;;;;;3.10;2.47;;;11.60;99.90;;;;;;5095243;28;20243;-70
2023/03/23 03:54:34;;;;;;;2.87;2.33;;;11.70;99.90;;;;;;5094841;28;20249;-70
2023/03/23 03:57:01;;;;;;;3.60;2.50;;;11.70;99.90;;;;;;5095078;28;20222;-70
2023/03/23 03:59:28;;;;;;;3.50;2.43;;;11.70;99.90;;;;;;5095027;28;20192;-70
2023/03/23 04:01:54;;;;;;;3.00;2.60;;;11.70;99.90;;;;;;5095298;28;20258;-71
2023/03/23 04:04:22;;;;;;;3.73;2.33;;;11.80;99.90;;;;;;5095002;28;20196;-70
2023/03/23 04:06:49;;;;;;;2.37;2.17;;;11.80;99.90;;;;;;5094960;28;20192;-71
2023/03/23 04:09:19;;;;;;;2.90;1.97;;;11.80;99.90;;;;;;5093996;28;20765;-70
2023/03/23 04:11:45;;;;;;;2.90;2.40;;;11.80;99.90;;;;;;5094860;28;20196;-70
2023/03/23 04:14:12;;;;;;;3.13;2.00;;;11.80;99.90;;;;;;5095045;28;20599;-70
2023/03/23 04:16:40;;;;;;;2.87;2.57;;;11.80;99.90;;;;;;5094903;28;20224;-70
2023/03/23 04:19:07;;;;;;;2.37;2.10;;;11.90;99.90;;;;;;5094824;28;20200;-71
2023/03/23 04:21:34;;;;;;;3.37;2.40;;;11.90;99.90;;;;;;5094531;28;20227;-71
2023/03/23 04:24:01;;;;;;;3.13;2.70;;;11.90;99.90;;;;;;5094443;28;20200;-70
2023/03/23 04:26:29;;;;;;;3.30;2.30;;;12.00;99.90;;;;;;5094730;28;20281;-70
2023/03/23 04:28:56;;;;;;;5.67;2.63;;;12.10;99.90;;;;;;5094609;28;20259;-70
2023/03/23 04:31:25;;;;;;;3.57;2.50;;;12.10;99.90;;;;;;5094562;28;20197;-70
2023/03/23 04:33:52;;;;;;;2.73;2.00;;;12.10;99.90;;;;;;5094257;28;20240;-70
2023/03/23 04:36:19;;;;;;;3.47;2.50;;;12.10;99.90;;;;;;5094466;28;20207;-70
2023/03/23 04:38:46;;;;;;;2.53;2.00;;;12.20;99.90;;;;;;5094298;28;20231;-69
2023/03/23 04:41:13;;;;;;;3.13;2.10;;;12.20;99.90;;;;;;5094450;28;20231;-70
2023/03/23 04:43:42;;;;;;;2.70;2.20;;;12.20;99.90;;;;;;5094031;28;20745;-69
2023/03/23 04:46:09;;;;;;;3.43;2.30;;;12.00;99.90;;;;;;5094200;28;20287;-70
2023/03/23 04:48:38;;;;;;;3.67;2.50;;;11.90;99.90;;;;;;5094090;28;20292;-70
2023/03/23 04:51:05;;;;;;;3.93;2.27;;;11.70;99.90;;;;;;5093793;28;20279;-70
2023/03/23 04:53:32;;;;;;;5.53;2.47;;;11.70;99.90;;;;;;5094075;28;20644;-69
2023/03/23 04:56:00;;;;;;;3.20;2.40;;;11.60;99.90;;;;;;5094122;28;20228;-70
2023/03/23 04:58:27;;;;;;;3.43;2.83;;;11.50;99.90;;;;;;5094058;28;20245;-71
2023/03/23 05:00:56;;;;;;;4.17;2.90;;;11.40;99.90;;;;;;5093806;28;20563;-69
2023/03/23 05:03:22;;;;;;;3.20;2.40;;;11.40;99.90;;;;;;5093798;28;20245;-69
2023/03/23 05:05:51;;;;;;;3.30;2.30;;;11.40;99.90;;;;;;5093721;28;20228;-70
2023/03/23 05:08:18;;;;;;;2.67;2.20;;;11.40;99.90;;;;;;5093785;28;20624;-70
2023/03/23 05:10:51;;;;;;;5.10;2.30;;;11.40;99.90;;;;;;5093554;28;20707;-70
2023/03/23 05:13:17;;;;;;;4.13;2.30;;;11.40;99.90;;;;;;5093814;28;20197;-70
2023/03/23 05:15:44;;;;;;;3.60;2.67;;;11.40;99.90;;;;;;5093259;28;20663;-69
2023/03/23 05:18:12;;;;;;;6.07;2.60;;;11.40;99.90;;;;;;5093578;28;20224;-69
2023/03/23 05:20:39;;;;;;;5.50;2.20;;;11.40;99.90;;;;;;5093692;28;20238;-70
2023/03/23 05:23:06;;;;;;;5.10;2.90;;;11.40;99.90;;;;;;5093507;28;20615;-70
2023/03/23 05:25:36;;;;;;;6.17;2.50;;;11.40;99.90;;;;;;5093570;28;20201;-70
2023/03/23 05:28:03;;;;;;;4.37;2.23;;;11.50;99.90;;;;;;5093633;28;20295;-70
2023/03/23 05:30:29;;;;;;;4.00;2.43;;;11.50;99.90;;;;;;5093259;28;20220;-70
2023/03/23 05:32:56;;;;;;;5.37;2.83;;;11.50;99.90;;;;;;5093125;28;20279;-70
2023/03/23 05:35:24;;;;;;;5.20;2.37;;;11.50;99.90;;;;;;5093398;28;20230;-70
2023/03/23 05:37:53;;;;;;;2.93;2.40;;;11.50;99.90;;;;;;5093546;28;20223;-70
2023/03/23 05:40:20;;;;;;;3.87;2.10;;;11.50;99.90;;;;;;5093335;28;20582;-70
2023/03/23 05:42:48;;;;;;;2.97;2.43;;;11.60;99.90;;;;;;5093204;28;20249;-70
2023/03/23 05:45:16;;;;;;;3.57;2.43;;;11.60;99.90;;;;;;5093358;28;20197;-71
2023/03/23 05:47:42;;;;;;;4.40;2.37;;;11.70;99.90;;;;;;5093324;28;20200;-70
2023/03/23 05:50:10;;;;;;;4.50;2.57;;;11.70;99.90;;;;;;5093390;28;20220;-70
2023/03/23 05:52:38;;;;;;;5.10;2.50;;;11.70;99.90;;;;;;5093151;28;20239;-70
2023/03/23 05:55:07;;;;;;;4.90;2.47;;;11.80;99.90;;;;;;5092932;28;20223;-70
2023/03/23 05:57:34;;;;;;;4.60;2.57;;;11.80;99.90;;;;;;5092904;28;20559;-71
2023/03/23 06:00:13;;;;;;;4.13;2.33;;;11.80;99.90;;;;;;5092870;28;20235;-71
2023/03/23 06:02:43;;;;;;;3.53;2.60;;;11.90;99.90;;;;;;5093131;28;20291;-73
2023/03/23 06:05:10;;;;;;;3.60;2.50;;;11.80;99.90;;;;;;5092850;28;20197;-73
2023/03/23 06:07:38;;;;;;;3.67;2.77;;;11.90;99.90;;;;;;5092924;28;20286;-72
2023/03/23 06:10:06;;;;;;;2.93;2.50;;;11.90;99.90;;;;;;5092705;28;20652;-72
2023/03/23 06:12:33;;;;;;;3.70;2.60;;;11.80;99.90;;;;;;5092621;28;20200;-74
2023/03/23 06:15:00;;;;;;;5.00;2.73;;;11.80;99.90;;;;;;5092658;28;20277;-71
2023/03/23 06:17:27;;;;;;;4.57;3.07;;;11.80;99.90;;;;;;5092900;28;20200;-73
2023/03/23 06:19:54;;;;;;;4.47;3.13;;;11.80;99.90;;;;;;5092877;28;20242;-73
2023/03/23 06:22:20;;;;;;;3.20;2.90;;;11.80;99.90;;;;;;5096326;28;20231;-74
2023/03/23 06:24:48;;;;;;;5.50;3.10;;;11.80;99.90;;;;;;5092867;28;20254;-74
2023/03/23 06:27:16;;;;;;;4.27;3.17;;;11.90;99.90;;;;;;5092915;28;20218;-74
2023/03/23 06:29:43;;;;;;;6.23;3.27;;;11.90;99.90;;;;;;5092790;28;20223;-73
2023/03/23 06:32:12;;;;;;;3.90;3.10;;;12.00;99.90;;;;;;5093839;28;20192;-73
2023/03/23 06:34:40;;;;;;;3.80;3.40;;;12.10;99.90;;;;;;5096505;28;20228;-75
2023/03/23 06:37:07;;;;;;;6.67;3.23;;;12.10;99.90;;;;;;5096423;28;20206;-72
2023/03/23 06:39:33;;;;;;;5.17;3.80;;;12.20;99.90;;;;;;5095837;28;20235;-70
2023/03/23 06:42:01;;;;;;;7.67;3.43;;;12.30;99.90;;;;;;5096106;28;20227;-73
2023/03/23 06:44:28;;;;;;;5.07;3.50;;;12.40;99.90;;;;;;5096421;28;20644;-72
2023/03/23 06:46:55;;;;;;;5.20;3.33;;;12.50;99.90;;;;;;5096716;28;20200;-72
2023/03/23 06:49:22;;;;;;;5.83;3.57;;;12.60;99.90;;;;;;5095834;28;20590;-72
2023/03/23 06:51:49;;;;;;;5.03;3.70;;;12.70;99.90;;;;;;5096220;28;20206;-70
2023/03/23 06:54:15;;;;;;;5.27;3.40;;;12.80;99.90;;;;;;5096059;28;20224;-72
2023/03/23 06:56:42;;;;;;;8.47;3.67;;;12.90;99.90;;;;;;5096407;28;20200;-72
2023/03/23 06:59:10;;;;;;;7.83;3.50;;;12.90;99.90;;;;;;5093114;28;20196;-71
2023/03/23 07:01:37;;;;;;;6.33;3.33;;;13.00;99.90;;;;;;5093901;28;20216;-71
2023/03/23 07:04:05;;;;;;;5.87;3.30;;;13.00;99.90;;;;;;5093685;28;20200;-71
2023/03/23 07:06:31;;;;;;;5.00;3.40;;;13.00;99.90;;;;;;5093657;28;20304;-73
2023/03/23 07:08:58;;;;;;;4.23;3.40;;;13.00;99.90;;;;;;5093834;28;20227;-70
2023/03/23 07:11:25;;;;;;;4.13;3.37;;;12.90;99.90;;;;;;5093815;28;20267;-71
2023/03/23 07:13:51;;;;;;;3.90;3.43;;;13.00;99.90;;;;;;5093746;28;20286;-71
2023/03/23 07:16:19;;;;;;;3.70;3.23;;;13.00;99.90;;;;;;5093397;28;20196;-72
2023/03/23 07:18:46;;;;;;;5.70;3.70;;;13.00;99.90;;;;;;5093506;28;20200;-72
2023/03/23 07:21:13;;;;;;;5.40;3.80;;;13.10;99.90;;;;;;5092887;28;20232;-72
2023/03/23 07:23:39;;;;;;;4.67;3.70;;;13.00;99.90;;;;;;5093631;28;20193;-72
2023/03/23 07:26:07;;;;;;;6.13;3.60;;;13.00;99.90;;;;;;5094093;28;20579;-78
2023/03/23 07:28:34;;;;;;;4.27;3.27;;;13.10;99.90;;;;;;5095774;28;20200;-71
2023/03/23 07:31:00;;;;;;;7.30;3.70;;;13.10;99.90;;;;;;5095630;28;20250;-71
2023/03/23 07:33:28;;;;;;;6.53;3.50;;;13.10;99.90;;;;;;5095690;28;20317;-75
2023/03/23 07:35:55;;;;;;;4.77;3.73;;;13.20;99.90;;;;;;5095388;28;20215;-71
2023/03/23 07:38:21;;;;;;;6.07;3.50;;;13.30;99.90;;;;;;5095582;28;20227;-72
2023/03/23 07:40:48;;;;;;;4.67;3.37;;;13.40;99.90;;;;;;5095317;28;20223;-72
2023/03/23 07:43:15;;;;;;;4.43;3.53;;;13.60;99.90;;;;;;5094341;28;20251;-72
2023/03/23 07:45:42;;;;;;;7.97;3.67;;;13.70;99.90;;;;;;5095512;28;20200;-72
2023/03/23 07:48:08;;;;;;;5.70;3.23;;;13.80;99.90;;;;;;5094983;28;20228;-72
2023/03/23 07:50:37;;;;;;;6.60;3.50;;;13.90;99.90;;;;;;5095328;28;20224;-70
2023/03/23 07:53:04;;;;;;;5.17;3.50;;;14.00;99.90;;;;;;5095148;28;20743;-71
2023/03/23 07:55:30;;;;;;;4.43;3.60;;;14.20;99.90;;;;;;5095256;28;20227;-71
2023/03/23 07:57:57;;;;;;;5.90;3.40;;;14.20;99.90;;;;;;5095100;28;20291;-72
2023/03/23 08:00:25;;;;;;;6.27;3.63;;;14.20;99.90;;;;;;5094902;28;20204;-71
2023/03/23 08:02:55;;;;;;;5.57;3.60;;;14.10;99.90;;;;;;5094880;28;20659;-71
2023/03/23 08:05:23;;;;;;;6.70;3.30;;;14.10;99.90;;;;;;5094960;28;20283;-71
2023/03/23 08:07:51;;;;;;;7.03;3.33;;;14.00;99.90;;;;;;5094765;28;20211;-71
2023/03/23 08:10:19;;;;;;;5.93;3.60;;;14.00;99.90;;;;;;5094675;28;20231;-71
2023/03/23 08:12:46;;;;;;;4.27;3.37;;;13.90;99.90;;;;;;5094741;28;20317;-71
2023/03/23 08:15:15;;;;;;;5.10;3.27;;;13.90;99.90;;;;;;5094464;28;20196;-72
2023/03/23 08:17:42;;;;;;;4.53;3.63;;;13.90;99.90;;;;;;5095064;28;20192;-71
2023/03/23 08:20:12;;;;;;;3.73;3.10;;;14.00;99.90;;;;;;5094522;28;20209;-71
2023/03/23 08:22:40;;;;;;;6.30;3.50;;;14.00;99.90;;;;;;5094763;28;20196;-71
2023/03/23 08:25:11;;;;;;;7.57;3.20;;;14.10;99.90;;;;;;5094384;28;20211;-71
2023/03/23 08:27:42;;;;;;;4.30;2.90;;;14.10;99.90;;;;;;5094396;28;20338;-71
2023/03/23 08:30:12;;;;;;;3.53;3.07;;;14.10;99.90;;;;;;5094532;28;20196;-71
2023/03/23 08:32:39;;;;;;;5.23;2.87;;;14.20;99.90;;;;;;5094120;28;20196;-71
2023/03/23 08:35:06;;;;;;;3.07;2.73;;;14.40;99.90;;;;;;5094287;28;20267;-71
2023/03/23 08:37:33;;;;;;;4.30;2.90;;;14.50;99.90;;;;;;5093980;28;20249;-70
2023/03/23 08:40:00;;;;;;;3.88;2.72;;;14.60;99.90;;;;;;5094171;28;20192;-71
2023/03/23 08:42:28;;;;;;;6.28;3.22;;;14.90;99.90;;;;;;5093983;28;20200;-71
2023/03/23 08:44:55;;;;;;;3.58;2.60;;;15.10;99.90;;;;;;5094359;28;20204;-71
2023/03/23 08:47:22;;;;;;;7.45;2.88;;;14.90;99.90;;;;;;5094226;28;20224;-71
2023/03/23 08:49:52;;;;;;;5.70;2.67;;;14.90;99.90;;;;;;5094101;28;20598;-71
2023/03/23 08:52:19;;;;;;;6.55;2.83;;;14.90;99.90;;;;;;5093919;28;20224;-70
2023/03/23 08:54:47;;;;;;;2.88;2.28;;;15.10;99.90;;;;;;5093682;28;20246;-71
2023/03/23 08:57:14;;;;;;;2.88;2.33;;;15.00;99.90;;;;;;5093820;28;20200;-70
2023/03/23 08:59:42;;;;;;;3.90;2.33;;;15.00;99.90;;;;;;5094069;28;20203;-70
2023/03/23 09:02:11;;;;;;;4.22;2.90;;;15.00;99.90;;;;;;5093851;28;20594;-71
2023/03/23 09:04:38;;;;;;;2.58;2.20;;;15.00;99.90;;;;;;5093730;28;20193;-71
2023/03/23 09:07:04;;;;;;;3.05;2.53;;;15.00;99.90;;;;;;5093573;28;20245;-71
2023/03/23 09:09:31;;;;;;;2.63;2.40;;;15.00;99.90;;;;;;5093584;28;20670;-71
2023/03/23 09:11:58;;;;;;;3.47;2.42;;;15.30;99.90;;;;;;5093646;28;20224;-71
2023/03/23 09:14:25;;;;;;;9.57;2.97;;;15.40;99.90;;;;;;5093707;28;20239;-71
2023/03/23 09:16:53;;;;;;;3.05;2.10;;;15.70;99.90;;;;;;5093548;28;20257;-71
2023/03/23 09:19:20;;;;;;;3.00;2.00;;;15.70;99.90;;;;;;5093331;28;20598;-71
2023/03/23 09:21:46;;;;;;;5.47;2.28;;;15.70;99.90;;;;;;5093402;28;20204;-71
2023/03/23 09:24:14;;;;;;;4.25;2.60;;;15.60;99.90;;;;;;5093332;28;20231;-72
2023/03/23 09:26:40;;;;;;;2.80;2.10;;;15.50;99.90;;;;;;5093653;28;20197;-71
2023/03/23 09:29:07;;;;;;;2.58;2.28;;;15.50;99.90;;;;;;5093366;28;20223;-71
2023/03/23 09:31:36;;;;;;;4.13;2.30;;;15.50;99.90;;;;;;5093131;28;20234;-71
2023/03/23 09:34:06;;;;;;;4.03;2.28;;;15.40;99.90;;;;;;5093225;28;20314;-71
2023/03/23 09:36:32;;;;;;;5.45;3.08;;;15.50;99.90;;;;;;5093300;28;20192;-71
2023/03/23 09:38:59;;;;;;;3.13;2.60;;;15.70;99.90;;;;;;5093269;28;20197;-71
2023/03/23 09:41:44;;;;;;;4.72;2.55;;;15.60;99.90;;;;;;5093356;28;20210;-72
2023/03/23 09:44:18;;;;;;;4.93;3.67;;;15.40;99.90;;;;;;5093136;28;20218;-69
2023/03/23 09:46:56;;;;;;;2.60;2.22;;;15.30;99.90;;;;;;5093232;28;20196;-71
2023/03/23 09:49:28;;;;;;;2.85;2.10;;;15.20;99.90;;;;;;5093212;28;20204;-71
2023/03/23 09:51:58;;;;;;;5.23;2.60;;;15.10;99.90;;;;;;5093003;28;20220;-71
2023/03/23 09:54:28;;;;;;;6.60;3.65;;;14.90;99.90;;;;;;5093011;28;20192;-71
2023/03/23 09:56:56;;;;;;;8.48;5.40;;;14.90;99.90;;;;;;5092941;28;20232;-70
2023/03/23 09:59:28;;;;;;;2.97;2.67;;;14.90;99.90;;;;;;5092795;28;20228;-71
2023/03/23 10:01:59;;;;;;;2.87;2.60;;;14.70;99.90;;;;;;5093005;28;20228;-71
2023/03/23 10:04:37;;;;;;;3.30;3.00;;;14.60;99.90;;;;;;5093034;28;20242;-70
2023/03/23 10:07:11;;;;;;;5.30;2.27;;;14.50;99.90;;;;;;5092052;28;20200;-71
2023/03/23 10:09:38;;;;;;;3.73;2.80;;;14.50;99.90;;;;;;5092747;28;20196;-71
2023/03/23 10:12:16;;;;;;;5.47;3.27;;;14.40;99.90;;;;;;5092488;28;20266;-71
2023/03/23 10:14:52;;;;;;;6.30;2.70;;;14.50;99.90;;;;;;5092862;28;20207;-71
2023/03/23 10:17:24;;;;;;;4.17;3.00;;;14.50;99.90;;;;;;5092806;28;20227;-71
2023/03/23 10:19:58;;;;;;;3.27;2.80;;;14.60;99.90;;;;;;5092671;28;20247;-71
2023/03/23 10:22:30;;;;;;;4.73;2.90;;;14.70;99.90;;;;;;5092536;28;20256;-71
2023/03/23 10:25:08;;;;;;;4.40;2.50;;;14.30;99.90;;;;;;5092730;28;20196;-71
2023/03/23 10:27:39;;;;;;;4.17;2.87;;;14.20;99.90;;;;;;5092662;28;20207;-71
2023/03/23 10:30:18;;;;;;;5.00;2.90;;;14.20;99.90;;;;;;5092672;28;20598;-71
2023/03/23 10:32:51;;;;;;;5.67;3.00;;;14.30;99.90;;;;;;5092135;28;20220;-71
2023/03/23 10:35:23;;;;;;;3.33;2.97;;;14.30;99.90;;;;;;5092866;28;20208;-71
2023/03/23 10:37:54;;;;;;;4.40;3.40;;;14.40;99.90;;;;;;5092611;28;20196;-71
2023/03/23 10:40:24;;;;;;;6.87;3.47;;;14.30;99.90;;;;;;5092532;28;20236;-71
2023/03/23 10:42:51;;;;;;;7.67;3.33;;;14.30;99.90;;;;;;5092332;28;20197;-71
2023/03/23 10:45:21;;;;;;;3.60;3.27;;;14.30;99.90;;;;;;5092263;28;20568;-71
2023/03/23 10:47:53;;;;;;;4.83;3.00;;;14.20;99.90;;;;;;5092489;28;20204;-71
2023/03/23 10:50:27;;;;;;;5.63;3.03;;;14.20;99.90;;;;;;5093235;28;20200;-71
2023/03/23 10:52:57;;;;;;;4.70;3.10;;;14.20;99.90;;;;;;5092533;28;20311;-70
2023/03/23 10:55:26;;;;;;;7.07;3.07;;;14.30;99.90;;;;;;5092313;28;20200;-71
2023/03/23 10:58:04;;;;;;;3.90;2.97;;;14.20;99.90;;;;;;5092233;28;20208;-69
2023/03/23 11:00:32;;;;;;;4.47;3.47;;;14.10;99.90;;;;;;5092379;28;20254;-71
2023/03/23 11:03:03;;;;;;;4.43;2.97;;;14.10;99.90;;;;;;5092555;28;20204;-71
2023/03/23 11:05:39;;;;;;;4.47;3.27;;;14.10;99.90;;;;;;5092450;28;20196;-70
2023/03/23 11:08:13;;;;;;;3.37;3.00;;;14.20;99.90;;;;;;5092365;28;20714;-71
2023/03/23 11:10:41;;;;;;;3.90;2.60;;;14.10;99.90;;;;;;5092610;28;20209;-72
2023/03/23 11:13:14;;;;;;;3.13;2.83;;;14.20;99.90;;;;;;5092138;28;20273;-72
2023/03/23 11:15:42;;;;;;;4.23;2.90;;;14.00;99.90;;;;;;5092360;28;20200;-71
2023/03/23 11:18:12;;;;;;;5.77;2.93;;;14.00;99.90;;;;;;5093521;28;20231;-71
2023/03/23 11:20:43;;;;;;;5.23;3.10;;;14.10;99.90;;;;;;5095947;28;20274;-72
2023/03/23 11:23:18;;;;;;;3.20;2.87;;;14.40;99.90;;;;;;5095980;28;20301;-70
2023/03/23 11:25:54;;;;;;;5.17;3.10;;;14.20;99.90;;;;;;5095825;28;20705;-71
2023/03/23 11:28:21;;;;;;;4.00;2.70;;;14.30;99.90;;;;;;5095754;28;20228;-71
2023/03/23 11:30:48;;;;;;;4.20;2.50;;;14.40;99.90;;;;;;5095548;28;20201;-70
2023/03/23 11:33:15;;;;;;;2.37;2.13;;;14.20;99.90;;;;;;5095174;28;20267;-70
2023/03/23 11:35:46;;;;;;;2.70;2.17;;;14.00;99.90;;;;;;5095625;28;20200;-71
2023/03/23 11:38:18;;;;;;;2.30;2.10;;;14.00;99.90;;;;;;5095416;28;20656;-70
2023/03/23 11:40:49;;;;;;;3.87;2.20;;;14.00;99.90;;;;;;5095424;28;20200;-70
2023/03/23 11:43:20;;;;;;;2.93;2.20;;;14.10;99.90;;;;;;5095349;28;20235;-70
2023/03/23 11:45:50;;;;;;;2.60;2.07;;;14.10;99.90;;;;;;5095362;28;20228;-70
2023/03/23 11:48:25;;;;;;;2.40;2.13;;;14.10;99.90;;;;;;5095520;28;20227;-71
2023/03/23 11:50:56;;;;;;;2.73;2.20;;;14.20;99.90;;;;;;5095366;28;20663;-70
2023/03/23 11:53:38;;;;;;;5.13;3.93;;;14.40;99.90;;;;;;5095237;28;20623;-70
2023/03/23 11:56:15;;;;;;;5.03;3.30;;;15.10;99.90;;;;;;5095007;28;20196;-70
2023/03/23 11:58:41;;;;;;;4.40;1.80;;;15.20;99.90;;;;;;5095273;28;20238;-71
2023/03/23 12:01:18;;;;;;;4.45;2.10;;;15.40;99.90;;;;;;5094982;28;20257;-72
2023/03/23 12:03:59;;;;;;;2.45;2.00;;;15.60;99.90;;;;;;5095027;28;20200;-71
2023/03/23 12:06:36;;;;;;;2.85;2.03;;;15.80;99.90;;;;;;5094791;28;20348;-71
2023/03/23 12:09:16;;;;;;;2.20;1.90;;;16.00;99.90;;;;;;5094939;28;20204;-71
2023/03/23 12:11:54;;;;;;;2.10;1.88;;;15.90;99.90;;;;;;5094831;28;20335;-71
2023/03/23 12:14:26;;;;;;;2.20;2.00;;;15.70;99.90;;;;;;5094601;28;20200;-70
2023/03/23 12:17:04;;;;;;;4.05;1.92;;;15.70;99.90;;;;;;5094532;28;20556;-71
2023/03/23 12:19:39;;;;;;;1.98;1.77;;;15.90;99.90;;;;;;5094779;28;20246;-71
2023/03/23 12:22:20;;;;;;;2.97;2.10;;;15.50;99.90;;;;;;5094694;28;20191;-70
2023/03/23 12:24:59;;;;;;;4.18;1.85;;;15.70;99.90;;;;;;5094593;28;20656;-70
2023/03/23 12:27:35;;;;;;;1.98;1.77;;;15.80;99.90;;;;;;5094295;28;20228;-71
2023/03/23 12:30:20;;;;;;;2.70;1.95;;;16.20;99.90;;;;;;5093910;28;20196;-70
2023/03/23 12:33:01;;;;;;;2.42;1.80;;;15.50;99.90;;;;;;5094189;28;20259;-70
2023/03/23 12:35:38;;;;;;;2.73;1.93;;;15.10;99.90;;;;;;5094179;28;20549;-71
2023/03/23 12:38:24;;;;;;;3.17;2.10;;;15.10;99.90;;;;;;5094220;28;20231;-70
2023/03/23 12:41:09;;;;;;;2.40;2.00;;;14.90;99.90;;;;;;5094456;28;20223;-71
2023/03/23 12:43:41;;;;;;;3.70;2.07;;;14.80;99.90;;;;;;5094137;28;20200;-71
2023/03/23 12:46:27;;;;;;;2.13;1.93;;;15.00;99.90;;;;;;5093805;28;20204;-71
2023/03/23 12:48:58;;;;;;;2.37;2.10;;;14.90;99.90;;;;;;5093931;28;20613;-70
2023/03/23 12:51:32;;;;;;;3.37;2.50;;;15.00;99.90;;;;;;5093892;28;20620;-70
2023/03/23 12:54:10;;;;;;;3.20;2.13;;;15.00;99.90;;;;;;5094050;28;20208;-70
2023/03/23 12:56:43;;;;;;;2.20;2.00;;;15.00;99.90;;;;;;5093726;28;20227;-70
2023/03/23 12:59:15;;;;;;;3.47;2.50;;;14.80;99.90;;;;;;5094172;28;20235;-71
2023/03/23 13:01:45;;;;;;;3.70;2.47;;;14.90;99.90;;;;;;5093921;28;20196;-70